sensor_id;sensor_type;location;lat;lon;timestamp;P1;P2;P0
70915;PMS5003;58557;50.982;-3.222;2023-05-10T00:01:09;8;6;
70915;PMS5003;58557;50.982;-3.222;2023-05-10T00:03:25;11;8;
70915;PMS5003;58557;50.982;-3.222;2023-05-10T00:05:51;12;12;
70915;PMS5003;58557;50.982;-3.222;2023-05-10T00:08:19;9;9;
70915;PMS5003;58557;50.982;-3.222;2023-05-10T00:10:42;15;13;
70915;PMS5003;58557;50.982;-3.222;2023-05-10T00:13:16;11;8;
70915;PMS5003;58557;50.982;-3.222;2023-05-10T00:15:32;13;8;
70915;PMS5003;58557;50.982;-3.222;2023-05-10T00:17:58;13;9;
70915;PMS5003;58557;50.982;-3.222;2023-05-10T00:20:23;14;8;
70915;PMS5003;58557;50.982;-3.222;2023-05-10T00:22:48;9;6;
70915;PMS5003;58557;50.982;-3.222;2023-05-10T00:25:14;14;13;
70915;PMS5003;58557;50.982;-3.222;2023-05-10T00:27:39;12;9;
70915;PMS5003;58557;50.982;-3.222;2023-05-10T00:30:05;18;15;
70915;PMS5003;58557;50.982;-3.222;2023-05-10T00:32:30;11;7;
70915;PMS5003;58557;50.982;-3.222;2023-05-10T00:34:56;12;8;
70915;PMS5003;58557;50.982;-3.222;2023-05-10T00:37:21;14;13;
70915;PMS5003;58557;50.982;-3.222;2023-05-10T00:39:48;8;7;
70915;PMS5003;58557;50.982;-3.222;2023-05-10T00:42:13;14;12;
70915;PMS5003;58557;50.982;-3.222;2023-05-10T00:44:38;6;6;
70915;PMS5003;58557;50.982;-3.222;2023-05-10T00:47:05;10;10;
70915;PMS5003;58557;50.982;-3.222;2023-05-10T00:49:29;15;14;
70915;PMS5003;58557;50.982;-3.222;2023-05-10T00:51:55;8;8;
70915;PMS5003;58557;50.982;-3.222;2023-05-10T00:54:20;7;5;
70915;PMS5003;58557;50.982;-3.222;2023-05-10T00:56:46;11;7;
70915;PMS5003;58557;50.982;-3.222;2023-05-10T00:59:11;11;7;
70915;PMS5003;58557;50.982;-3.222;2023-05-10T01:01:38;9;7;
70915;PMS5003;58557;50.982;-3.222;2023-05-10T01:04:02;15;9;
70915;PMS5003;58557;50.982;-3.222;2023-05-10T01:06:28;13;13;
70915;PMS5003;58557;50.982;-3.222;2023-05-10T01:08:53;16;9;
70915;PMS5003;58557;50.982;-3.222;2023-05-10T01:11:20;13;11;
70915;PMS5003;58557;50.982;-3.222;2023-05-10T01:13:44;14;11;
70915;PMS5003;58557;50.982;-3.222;2023-05-10T01:16:09;12;7;
70915;PMS5003;58557;50.982;-3.222;2023-05-10T01:18:40;8;8;
70915;PMS5003;58557;50.982;-3.222;2023-05-10T01:21:04;12;7;
70915;PMS5003;58557;50.982;-3.222;2023-05-10T01:23:35;9;5;
70915;PMS5003;58557;50.982;-3.222;2023-05-10T01:28:19;14;13;
70915;PMS5003;58557;50.982;-3.222;2023-05-10T01:30:49;10;8;
70915;PMS5003;58557;50.982;-3.222;2023-05-10T01:33:10;20;12;
70915;PMS5003;58557;50.982;-3.222;2023-05-10T01:35:35;15;9;
70915;PMS5003;58557;50.982;-3.222;2023-05-10T01:38:03;16;14;
70915;PMS5003;58557;50.982;-3.222;2023-05-10T01:40:25;13;9;
70915;PMS5003;58557;50.982;-3.222;2023-05-10T01:42:51;24;15;
70915;PMS5003;58557;50.982;-3.222;2023-05-10T01:45:18;9;6;
70915;PMS5003;58557;50.982;-3.222;2023-05-10T01:47:42;9;8;
70915;PMS5003;58557;50.982;-3.222;2023-05-10T01:50:18;13;9;
70915;PMS5003;58557;50.982;-3.222;2023-05-10T01:52:32;9;6;
70915;PMS5003;58557;50.982;-3.222;2023-05-10T01:54:59;22;16;
70915;PMS5003;58557;50.982;-3.222;2023-05-10T01:57:24;17;13;
70915;PMS5003;58557;50.982;-3.222;2023-05-10T01:59:49;9;8;
70915;PMS5003;58557;50.982;-3.222;2023-05-10T02:02:13;19;13;
70915;PMS5003;58557;50.982;-3.222;2023-05-10T02:04:39;16;11;
70915;PMS5003;58557;50.982;-3.222;2023-05-10T02:07:05;13;8;
70915;PMS5003;58557;50.982;-3.222;2023-05-10T02:09:29;14;8;
70915;PMS5003;58557;50.982;-3.222;2023-05-10T02:11:55;16;11;
70915;PMS5003;58557;50.982;-3.222;2023-05-10T02:14:21;14;11;
70915;PMS5003;58557;50.982;-3.222;2023-05-10T02:16:46;14;6;
70915;PMS5003;58557;50.982;-3.222;2023-05-10T02:19:12;8;8;
70915;PMS5003;58557;50.982;-3.222;2023-05-10T02:21:37;12;8;
70915;PMS5003;58557;50.982;-3.222;2023-05-10T02:24:03;8;8;
70915;PMS5003;58557;50.982;-3.222;2023-05-10T02:26:35;13;11;
70915;PMS5003;58557;50.982;-3.222;2023-05-10T02:28:54;16;8;
70915;PMS5003;58557;50.982;-3.222;2023-05-10T02:31:19;9;9;
70915;PMS5003;58557;50.982;-3.222;2023-05-10T02:33:45;14;9;
70915;PMS5003;58557;50.982;-3.222;2023-05-10T02:36:10;23;16;
70915;PMS5003;58557;50.982;-3.222;2023-05-10T02:38:39;7;6;
70915;PMS5003;58557;50.982;-3.222;2023-05-10T02:41:02;13;11;
70915;PMS5003;58557;50.982;-3.222;2023-05-10T02:43:27;16;8;
70915;PMS5003;58557;50.982;-3.222;2023-05-10T02:45:53;8;8;
70915;PMS5003;58557;50.982;-3.222;2023-05-10T02:48:18;15;8;
70915;PMS5003;58557;50.982;-3.222;2023-05-10T02:50:44;12;5;
70915;PMS5003;58557;50.982;-3.222;2023-05-10T02:53:10;8;5;
70915;PMS5003;58557;50.982;-3.222;2023-05-10T02:55:36;17;12;
70915;PMS5003;58557;50.982;-3.222;2023-05-10T02:58:01;16;9;
70915;PMS5003;58557;50.982;-3.222;2023-05-10T03:00:26;14;7;
70915;PMS5003;58557;50.982;-3.222;2023-05-10T03:02:51;6;5;
70915;PMS5003;58557;50.982;-3.222;2023-05-10T03:05:17;11;9;
70915;PMS5003;58557;50.982;-3.222;2023-05-10T03:07:42;7;5;
70915;PMS5003;58557;50.982;-3.222;2023-05-10T03:10:08;8;7;
70915;PMS5003;58557;50.982;-3.222;2023-05-10T03:12:40;8;6;
70915;PMS5003;58557;50.982;-3.222;2023-05-10T03:15:01;11;7;
70915;PMS5003;58557;50.982;-3.222;2023-05-10T03:17:35;7;4;
70915;PMS5003;58557;50.982;-3.222;2023-05-10T03:19:52;14;7;
70915;PMS5003;58557;50.982;-3.222;2023-05-10T03:22:17;16;11;
70915;PMS5003;58557;50.982;-3.222;2023-05-10T03:24:41;18;14;
70915;PMS5003;58557;50.982;-3.222;2023-05-10T03:27:07;10;10;
70915;PMS5003;58557;50.982;-3.222;2023-05-10T03:29:32;9;8;
70915;PMS5003;58557;50.982;-3.222;2023-05-10T03:31:58;11;6;
70915;PMS5003;58557;50.982;-3.222;2023-05-10T03:34:24;13;8;
70915;PMS5003;58557;50.982;-3.222;2023-05-10T03:36:49;6;5;
70915;PMS5003;58557;50.982;-3.222;2023-05-10T03:39:15;6;6;
70915;PMS5003;58557;50.982;-3.222;2023-05-10T03:41:40;16;14;
70915;PMS5003;58557;50.982;-3.222;2023-05-10T03:44:05;11;5;
70915;PMS5003;58557;50.982;-3.222;2023-05-10T03:46:31;4;4;
70915;PMS5003;58557;50.982;-3.222;2023-05-10T03:48:57;7;7;
70915;PMS5003;58557;50.982;-3.222;2023-05-10T03:51:23;11;6;
70915;PMS5003;58557;50.982;-3.222;2023-05-10T03:53:48;6;6;
70915;PMS5003;58557;50.982;-3.222;2023-05-10T03:56:13;6;4;
70915;PMS5003;58557;50.982;-3.222;2023-05-10T03:58:38;13;7;
70915;PMS5003;58557;50.982;-3.222;2023-05-10T04:01:04;9;6;
70915;PMS5003;58557;50.982;-3.222;2023-05-10T04:03:30;7;6;
70915;PMS5003;58557;50.982;-3.222;2023-05-10T04:05:59;11;7;
70915;PMS5003;58557;50.982;-3.222;2023-05-10T04:08:21;13;9;
70915;PMS5003;58557;50.982;-3.222;2023-05-10T04:10:51;9;5;
70915;PMS5003;58557;50.982;-3.222;2023-05-10T04:13:17;10;8;
70915;PMS5003;58557;50.982;-3.222;2023-05-10T04:15:37;12;9;
70915;PMS5003;58557;50.982;-3.222;2023-05-10T04:18:03;9;7;
70915;PMS5003;58557;50.982;-3.222;2023-05-10T04:20:28;9;6;
70915;PMS5003;58557;50.982;-3.222;2023-05-10T04:23:09;13;5;
70915;PMS5003;58557;50.982;-3.222;2023-05-10T04:25:25;10;6;
70915;PMS5003;58557;50.982;-3.222;2023-05-10T04:27:44;10;4;
70915;PMS5003;58557;50.982;-3.222;2023-05-10T04:30:10;8;7;
70915;PMS5003;58557;50.982;-3.222;2023-05-10T04:32:35;7;6;
70915;PMS5003;58557;50.982;-3.222;2023-05-10T04:35:01;4;4;
70915;PMS5003;58557;50.982;-3.222;2023-05-10T04:37:27;9;6;
70915;PMS5003;58557;50.982;-3.222;2023-05-10T04:39:52;9;7;
70915;PMS5003;58557;50.982;-3.222;2023-05-10T04:42:23;12;9;
70915;PMS5003;58557;50.982;-3.222;2023-05-10T04:44:56;7;4;
70915;PMS5003;58557;50.982;-3.222;2023-05-10T04:47:09;5;5;
70915;PMS5003;58557;50.982;-3.222;2023-05-10T04:49:34;7;7;
70915;PMS5003;58557;50.982;-3.222;2023-05-10T04:52:00;8;5;
70915;PMS5003;58557;50.982;-3.222;2023-05-10T04:54:26;5;5;
70915;PMS5003;58557;50.982;-3.222;2023-05-10T04:56:51;11;9;
70915;PMS5003;58557;50.982;-3.222;2023-05-10T04:59:35;4;4;
70915;PMS5003;58557;50.982;-3.222;2023-05-10T05:01:49;5;5;
70915;PMS5003;58557;50.982;-3.222;2023-05-10T05:04:08;6;3;
70915;PMS5003;58557;50.982;-3.222;2023-05-10T05:06:33;7;3;
70915;PMS5003;58557;50.982;-3.222;2023-05-10T05:08:58;5;4;
70915;PMS5003;58557;50.982;-3.222;2023-05-10T05:11:24;7;5;
70915;PMS5003;58557;50.982;-3.222;2023-05-10T05:13:50;6;6;
70915;PMS5003;58557;50.982;-3.222;2023-05-10T05:16:15;7;5;
70915;PMS5003;58557;50.982;-3.222;2023-05-10T05:18:41;6;5;
70915;PMS5003;58557;50.982;-3.222;2023-05-10T05:23:38;5;3;
70915;PMS5003;58557;50.982;-3.222;2023-05-10T05:25:57;8;7;
70915;PMS5003;58557;50.982;-3.222;2023-05-10T05:28:23;8;6;
70915;PMS5003;58557;50.982;-3.222;2023-05-10T05:30:48;12;10;
70915;PMS5003;58557;50.982;-3.222;2023-05-10T05:33:14;7;6;
70915;PMS5003;58557;50.982;-3.222;2023-05-10T05:35:39;8;5;
70915;PMS5003;58557;50.982;-3.222;2023-05-10T05:38:05;8;4;
70915;PMS5003;58557;50.982;-3.222;2023-05-10T05:40:30;6;3;
70915;PMS5003;58557;50.982;-3.222;2023-05-10T05:43:02;5;5;
70915;PMS5003;58557;50.982;-3.222;2023-05-10T05:45:21;5;4;
70915;PMS5003;58557;50.982;-3.222;2023-05-10T05:47:48;6;4;
70915;PMS5003;58557;50.982;-3.222;2023-05-10T05:50:13;9;6;
70915;PMS5003;58557;50.982;-3.222;2023-05-10T05:52:38;6;5;
70915;PMS5003;58557;50.982;-3.222;2023-05-10T05:55:03;3;3;
70915;PMS5003;58557;50.982;-3.222;2023-05-10T05:57:28;13;10;
70915;PMS5003;58557;50.982;-3.222;2023-05-10T05:59:54;5;5;
70915;PMS5003;58557;50.982;-3.222;2023-05-10T06:02:20;6;4;
70915;PMS5003;58557;50.982;-3.222;2023-05-10T06:04:45;4;4;
70915;PMS5003;58557;50.982;-3.222;2023-05-10T06:07:10;5;4;
70915;PMS5003;58557;50.982;-3.222;2023-05-10T06:09:36;7;4;
70915;PMS5003;58557;50.982;-3.222;2023-05-10T06:12:02;3;3;
70915;PMS5003;58557;50.982;-3.222;2023-05-10T06:14:27;6;4;
70915;PMS5003;58557;50.982;-3.222;2023-05-10T06:16:53;7;6;
70915;PMS5003;58557;50.982;-3.222;2023-05-10T06:19:18;8;5;
70915;PMS5003;58557;50.982;-3.222;2023-05-10T06:21:49;4;3;
70915;PMS5003;58557;50.982;-3.222;2023-05-10T06:24:09;8;6;
70915;PMS5003;58557;50.982;-3.222;2023-05-10T06:26:35;7;6;
70915;PMS5003;58557;50.982;-3.222;2023-05-10T06:29:00;7;4;
70915;PMS5003;58557;50.982;-3.222;2023-05-10T06:31:26;7;3;
70915;PMS5003;58557;50.982;-3.222;2023-05-10T06:33:51;7;3;
70915;PMS5003;58557;50.982;-3.222;2023-05-10T06:36:17;16;8;
70915;PMS5003;58557;50.982;-3.222;2023-05-10T06:38:42;7;5;
70915;PMS5003;58557;50.982;-3.222;2023-05-10T06:41:08;8;5;
70915;PMS5003;58557;50.982;-3.222;2023-05-10T06:43:33;6;5;
70915;PMS5003;58557;50.982;-3.222;2023-05-10T06:45:59;5;5;
70915;PMS5003;58557;50.982;-3.222;2023-05-10T06:48:26;9;6;
70915;PMS5003;58557;50.982;-3.222;2023-05-10T06:50:49;5;4;
70915;PMS5003;58557;50.982;-3.222;2023-05-10T06:53:15;6;3;
70915;PMS5003;58557;50.982;-3.222;2023-05-10T06:55:41;4;2;
70915;PMS5003;58557;50.982;-3.222;2023-05-10T06:58:06;4;4;
70915;PMS5003;58557;50.982;-3.222;2023-05-10T07:00:32;5;4;
70915;PMS5003;58557;50.982;-3.222;2023-05-10T07:02:58;8;5;
70915;PMS5003;58557;50.982;-3.222;2023-05-10T07:05:23;7;5;
70915;PMS5003;58557;50.982;-3.222;2023-05-10T07:07:49;7;4;
70915;PMS5003;58557;50.982;-3.222;2023-05-10T07:10:14;7;4;
70915;PMS5003;58557;50.982;-3.222;2023-05-10T07:12:39;4;4;
70915;PMS5003;58557;50.982;-3.222;2023-05-10T07:15:06;4;4;
70915;PMS5003;58557;50.982;-3.222;2023-05-10T07:17:31;3;2;
70915;PMS5003;58557;50.982;-3.222;2023-05-10T07:19:56;11;6;
70915;PMS5003;58557;50.982;-3.222;2023-05-10T07:22:22;7;6;
70915;PMS5003;58557;50.982;-3.222;2023-05-10T07:24:47;5;3;
70915;PMS5003;58557;50.982;-3.222;2023-05-10T07:27:18;4;2;
70915;PMS5003;58557;50.982;-3.222;2023-05-10T07:29:39;6;4;
70915;PMS5003;58557;50.982;-3.222;2023-05-10T07:32:05;8;6;
70915;PMS5003;58557;50.982;-3.222;2023-05-10T07:34:30;8;6;
70915;PMS5003;58557;50.982;-3.222;2023-05-10T07:36:57;6;4;
70915;PMS5003;58557;50.982;-3.222;2023-05-10T07:39:22;6;6;
70915;PMS5003;58557;50.982;-3.222;2023-05-10T07:41:47;13;10;
70915;PMS5003;58557;50.982;-3.222;2023-05-10T07:44:12;15;8;
70915;PMS5003;58557;50.982;-3.222;2023-05-10T07:46:38;7;5;
70915;PMS5003;58557;50.982;-3.222;2023-05-10T07:49:03;9;5;
70915;PMS5003;58557;50.982;-3.222;2023-05-10T07:51:29;6;5;
70915;PMS5003;58557;50.982;-3.222;2023-05-10T07:53:55;12;10;
70915;PMS5003;58557;50.982;-3.222;2023-05-10T07:56:22;8;5;
70915;PMS5003;58557;50.982;-3.222;2023-05-10T07:58:46;10;7;
70915;PMS5003;58557;50.982;-3.222;2023-05-10T08:01:12;5;5;
70915;PMS5003;58557;50.982;-3.222;2023-05-10T08:03:38;10;5;
70915;PMS5003;58557;50.982;-3.222;2023-05-10T08:06:03;10;9;
70915;PMS5003;58557;50.982;-3.222;2023-05-10T08:08:28;7;6;
70915;PMS5003;58557;50.982;-3.222;2023-05-10T08:10:54;6;5;
70915;PMS5003;58557;50.982;-3.222;2023-05-10T08:13:20;7;6;
70915;PMS5003;58557;50.982;-3.222;2023-05-10T08:15:45;7;5;
70915;PMS5003;58557;50.982;-3.222;2023-05-10T08:18:11;15;10;
70915;PMS5003;58557;50.982;-3.222;2023-05-10T08:20:36;8;7;
70915;PMS5003;58557;50.982;-3.222;2023-05-10T08:23:02;6;6;
70915;PMS5003;58557;50.982;-3.222;2023-05-10T08:25:27;9;3;
70915;PMS5003;58557;50.982;-3.222;2023-05-10T08:27:52;10;5;
70915;PMS5003;58557;50.982;-3.222;2023-05-10T08:30:17;7;7;
70915;PMS5003;58557;50.982;-3.222;2023-05-10T08:32:43;7;6;
70915;PMS5003;58557;50.982;-3.222;2023-05-10T08:35:08;6;4;
70915;PMS5003;58557;50.982;-3.222;2023-05-10T08:37:34;9;5;
70915;PMS5003;58557;50.982;-3.222;2023-05-10T08:40:00;5;5;
70915;PMS5003;58557;50.982;-3.222;2023-05-10T08:42:25;16;10;
70915;PMS5003;58557;50.982;-3.222;2023-05-10T08:44:50;12;9;
70915;PMS5003;58557;50.982;-3.222;2023-05-10T08:47:16;11;8;
70915;PMS5003;58557;50.982;-3.222;2023-05-10T08:49:41;5;5;
70915;PMS5003;58557;50.982;-3.222;2023-05-10T08:52:07;10;8;
70915;PMS5003;58557;50.982;-3.222;2023-05-10T08:54:32;5;5;
70915;PMS5003;58557;50.982;-3.222;2023-05-10T08:56:58;9;6;
70915;PMS5003;58557;50.982;-3.222;2023-05-10T08:59:29;6;4;
70915;PMS5003;58557;50.982;-3.222;2023-05-10T09:01:49;7;4;
70915;PMS5003;58557;50.982;-3.222;2023-05-10T09:04:14;6;6;
70915;PMS5003;58557;50.982;-3.222;2023-05-10T09:06:40;8;8;
70915;PMS5003;58557;50.982;-3.222;2023-05-10T09:09:05;5;3;
70915;PMS5003;58557;50.982;-3.222;2023-05-10T09:11:31;4;2;
70915;PMS5003;58557;50.982;-3.222;2023-05-10T09:13:57;4;4;
70915;PMS5003;58557;50.982;-3.222;2023-05-10T09:16:22;6;6;
70915;PMS5003;58557;50.982;-3.222;2023-05-10T09:18:49;7;4;
70915;PMS5003;58557;50.982;-3.222;2023-05-10T09:23:42;5;3;
70915;PMS5003;58557;50.982;-3.222;2023-05-10T09:26:04;2;2;
70915;PMS5003;58557;50.982;-3.222;2023-05-10T09:28:31;3;2;
70915;PMS5003;58557;50.982;-3.222;2023-05-10T09:30:56;3;3;
70915;PMS5003;58557;50.982;-3.222;2023-05-10T09:33:27;5;3;
70915;PMS5003;58557;50.982;-3.222;2023-05-10T09:35:48;5;5;
70915;PMS5003;58557;50.982;-3.222;2023-05-10T09:38:13;6;6;
70915;PMS5003;58557;50.982;-3.222;2023-05-10T09:40:38;9;9;
70915;PMS5003;58557;50.982;-3.222;2023-05-10T09:43:04;4;4;
70915;PMS5003;58557;50.982;-3.222;2023-05-10T09:45:35;5;5;
70915;PMS5003;58557;50.982;-3.222;2023-05-10T09:47:55;7;6;
70915;PMS5003;58557;50.982;-3.222;2023-05-10T09:50:22;10;8;
70915;PMS5003;58557;50.982;-3.222;2023-05-10T09:52:47;5;4;
70915;PMS5003;58557;50.982;-3.222;2023-05-10T09:55:18;4;2;
70915;PMS5003;58557;50.982;-3.222;2023-05-10T09:57:37;10;8;
70915;PMS5003;58557;50.982;-3.222;2023-05-10T10:00:03;5;4;
70915;PMS5003;58557;50.982;-3.222;2023-05-10T10:02:28;5;4;
70915;PMS5003;58557;50.982;-3.222;2023-05-10T10:04:54;3;2;
70915;PMS5003;58557;50.982;-3.222;2023-05-10T10:07:22;5;2;
70915;PMS5003;58557;50.982;-3.222;2023-05-10T10:09:45;4;4;
70915;PMS5003;58557;50.982;-3.222;2023-05-10T10:12:11;3;3;
70915;PMS5003;58557;50.982;-3.222;2023-05-10T10:14:36;3;3;
70915;PMS5003;58557;50.982;-3.222;2023-05-10T10:17:02;8;7;
70915;PMS5003;58557;50.982;-3.222;2023-05-10T10:19:28;6;3;
70915;PMS5003;58557;50.982;-3.222;2023-05-10T10:21:53;4;2;
70915;PMS5003;58557;50.982;-3.222;2023-05-10T10:24:19;6;6;
70915;PMS5003;58557;50.982;-3.222;2023-05-10T10:26:46;8;5;
70915;PMS5003;58557;50.982;-3.222;2023-05-10T10:29:12;5;4;
70915;PMS5003;58557;50.982;-3.222;2023-05-10T10:31:36;7;4;
70915;PMS5003;58557;50.982;-3.222;2023-05-10T10:34:03;7;5;
70915;PMS5003;58557;50.982;-3.222;2023-05-10T10:36:27;4;2;
70915;PMS5003;58557;50.982;-3.222;2023-05-10T10:38:56;2;2;
70915;PMS5003;58557;50.982;-3.222;2023-05-10T10:43:44;2;1;
70915;PMS5003;58557;50.982;-3.222;2023-05-10T10:46:11;5;2;
70915;PMS5003;58557;50.982;-3.222;2023-05-10T10:48:35;3;3;
70915;PMS5003;58557;50.982;-3.222;2023-05-10T10:51:00;3;3;
70915;PMS5003;58557;50.982;-3.222;2023-05-10T10:53:26;3;1;
70915;PMS5003;58557;50.982;-3.222;2023-05-10T10:55:55;6;4;
70915;PMS5003;58557;50.982;-3.222;2023-05-10T11:00:42;5;4;
70915;PMS5003;58557;50.982;-3.222;2023-05-10T11:03:09;6;6;
70915;PMS5003;58557;50.982;-3.222;2023-05-10T11:05:36;4;4;
70915;PMS5003;58557;50.982;-3.222;2023-05-10T11:08:00;1;1;
70915;PMS5003;58557;50.982;-3.222;2023-05-10T11:10:25;2;2;
70915;PMS5003;58557;50.982;-3.222;2023-05-10T11:12:51;3;2;
70915;PMS5003;58557;50.982;-3.222;2023-05-10T11:15:16;3;3;
70915;PMS5003;58557;50.982;-3.222;2023-05-10T11:17:42;3;3;
70915;PMS5003;58557;50.982;-3.222;2023-05-10T11:20:07;2;2;
70915;PMS5003;58557;50.982;-3.222;2023-05-10T11:22:34;10;5;
70915;PMS5003;58557;50.982;-3.222;2023-05-10T11:24:58;4;2;
70915;PMS5003;58557;50.982;-3.222;2023-05-10T11:27:24;4;4;
70915;PMS5003;58557;50.982;-3.222;2023-05-10T11:29:51;2;2;
70915;PMS5003;58557;50.982;-3.222;2023-05-10T11:32:15;1;1;
70915;PMS5003;58557;50.982;-3.222;2023-05-10T11:34:40;4;3;
70915;PMS5003;58557;50.982;-3.222;2023-05-10T11:37:11;5;2;
70915;PMS5003;58557;50.982;-3.222;2023-05-10T11:39:32;1;1;
70915;PMS5003;58557;50.982;-3.222;2023-05-10T11:41:57;4;4;
70915;PMS5003;58557;50.982;-3.222;2023-05-10T11:44:23;2;2;
70915;PMS5003;58557;50.982;-3.222;2023-05-10T11:46:49;3;2;
70915;PMS5003;58557;50.982;-3.222;2023-05-10T11:49:14;6;4;
70915;PMS5003;58557;50.982;-3.222;2023-05-10T11:51:40;6;3;
70915;PMS5003;58557;50.982;-3.222;2023-05-10T11:54:06;3;1;
70915;PMS5003;58557;50.982;-3.222;2023-05-10T11:56:32;3;3;
70915;PMS5003;58557;50.982;-3.222;2023-05-10T11:58:57;7;3;
70915;PMS5003;58557;50.982;-3.222;2023-05-10T12:01:23;3;2;
70915;PMS5003;58557;50.982;-3.222;2023-05-10T12:03:48;3;2;
70915;PMS5003;58557;50.982;-3.222;2023-05-10T12:06:14;3;3;
70915;PMS5003;58557;50.982;-3.222;2023-05-10T12:08:43;2;2;
70915;PMS5003;58557;50.982;-3.222;2023-05-10T12:11:06;3;3;
70915;PMS5003;58557;50.982;-3.222;2023-05-10T12:13:31;5;3;
70915;PMS5003;58557;50.982;-3.222;2023-05-10T12:15:57;1;1;
70915;PMS5003;58557;50.982;-3.222;2023-05-10T12:18:26;3;3;
70915;PMS5003;58557;50.982;-3.222;2023-05-10T12:20:49;2;1;
70915;PMS5003;58557;50.982;-3.222;2023-05-10T12:23:13;4;1;
70915;PMS5003;58557;50.982;-3.222;2023-05-10T12:25:39;5;2;
70915;PMS5003;58557;50.982;-3.222;2023-05-10T12:28:05;2;2;
70915;PMS5003;58557;50.982;-3.222;2023-05-10T12:30:30;2;1;
70915;PMS5003;58557;50.982;-3.222;2023-05-10T12:32:59;6;2;
70915;PMS5003;58557;50.982;-3.222;2023-05-10T12:35:21;3;0;
70915;PMS5003;58557;50.982;-3.222;2023-05-10T12:37:47;5;3;
70915;PMS5003;58557;50.982;-3.222;2023-05-10T12:40:12;2;0;
70915;PMS5003;58557;50.982;-3.222;2023-05-10T12:42:38;2;2;
70915;PMS5003;58557;50.982;-3.222;2023-05-10T12:45:04;2;2;
70915;PMS5003;58557;50.982;-3.222;2023-05-10T12:47:29;3;2;
70915;PMS5003;58557;50.982;-3.222;2023-05-10T12:49:54;3;1;
70915;PMS5003;58557;50.982;-3.222;2023-05-10T12:52:20;1;1;
70915;PMS5003;58557;50.982;-3.222;2023-05-10T12:54:46;4;4;
70915;PMS5003;58557;50.982;-3.222;2023-05-10T12:57:12;3;1;
70915;PMS5003;58557;50.982;-3.222;2023-05-10T12:59:37;1;1;
70915;PMS5003;58557;50.982;-3.222;2023-05-10T13:02:03;2;1;
70915;PMS5003;58557;50.982;-3.222;2023-05-10T13:04:28;0;0;
70915;PMS5003;58557;50.982;-3.222;2023-05-10T13:06:54;1;1;
70915;PMS5003;58557;50.982;-3.222;2023-05-10T13:09:21;2;1;
70915;PMS5003;58557;50.982;-3.222;2023-05-10T13:11:45;5;5;
70915;PMS5003;58557;50.982;-3.222;2023-05-10T13:14:11;1;1;
70915;PMS5003;58557;50.982;-3.222;2023-05-10T13:16:36;2;2;
70915;PMS5003;58557;50.982;-3.222;2023-05-10T13:19:02;2;2;
70915;PMS5003;58557;50.982;-3.222;2023-05-10T13:21:27;1;1;
70915;PMS5003;58557;50.982;-3.222;2023-05-10T13:23:53;1;1;
70915;PMS5003;58557;50.982;-3.222;2023-05-10T13:26:19;1;1;
70915;PMS5003;58557;50.982;-3.222;2023-05-10T13:28:45;1;1;
70915;PMS5003;58557;50.982;-3.222;2023-05-10T13:31:10;4;1;
70915;PMS5003;58557;50.982;-3.222;2023-05-10T13:33:40;4;1;
70915;PMS5003;58557;50.982;-3.222;2023-05-10T13:36:01;1;1;
70915;PMS5003;58557;50.982;-3.222;2023-05-10T13:38:27;1;1;
70915;PMS5003;58557;50.982;-3.222;2023-05-10T13:40:52;2;0;
70915;PMS5003;58557;50.982;-3.222;2023-05-10T13:43:18;1;1;
70915;PMS5003;58557;50.982;-3.222;2023-05-10T13:45:44;0;0;
70915;PMS5003;58557;50.982;-3.222;2023-05-10T13:48:10;6;4;
70915;PMS5003;58557;50.982;-3.222;2023-05-10T13:50:35;1;1;
70915;PMS5003;58557;50.982;-3.222;2023-05-10T13:53:00;2;1;
70915;PMS5003;58557;50.982;-3.222;2023-05-10T13:55:26;1;1;
70915;PMS5003;58557;50.982;-3.222;2023-05-10T13:57:51;2;1;
70915;PMS5003;58557;50.982;-3.222;2023-05-10T14:00:23;2;1;
70915;PMS5003;58557;50.982;-3.222;2023-05-10T14:02:43;1;1;
70915;PMS5003;58557;50.982;-3.222;2023-05-10T14:05:08;0;0;
70915;PMS5003;58557;50.982;-3.222;2023-05-10T14:07:34;3;2;
70915;PMS5003;58557;50.982;-3.222;2023-05-10T14:09:59;0;0;
70915;PMS5003;58557;50.982;-3.222;2023-05-10T14:12:25;1;1;
70915;PMS5003;58557;50.982;-3.222;2023-05-10T14:14:51;3;3;
70915;PMS5003;58557;50.982;-3.222;2023-05-10T14:17:16;1;1;
70915;PMS5003;58557;50.982;-3.222;2023-05-10T14:19:42;1;1;
70915;PMS5003;58557;50.982;-3.222;2023-05-10T14:22:08;1;0;
70915;PMS5003;58557;50.982;-3.222;2023-05-10T14:24:33;1;1;
70915;PMS5003;58557;50.982;-3.222;2023-05-10T14:26:59;4;1;
70915;PMS5003;58557;50.982;-3.222;2023-05-10T14:29:24;4;2;
70915;PMS5003;58557;50.982;-3.222;2023-05-10T14:31:50;2;2;
70915;PMS5003;58557;50.982;-3.222;2023-05-10T14:34:16;3;1;
70915;PMS5003;58557;50.982;-3.222;2023-05-10T14:36:41;3;2;
70915;PMS5003;58557;50.982;-3.222;2023-05-10T14:39:07;1;1;
70915;PMS5003;58557;50.982;-3.222;2023-05-10T14:41:33;2;2;
70915;PMS5003;58557;50.982;-3.222;2023-05-10T14:43:58;1;1;
70915;PMS5003;58557;50.982;-3.222;2023-05-10T14:46:24;1;1;
70915;PMS5003;58557;50.982;-3.222;2023-05-10T14:48:50;2;1;
70915;PMS5003;58557;50.982;-3.222;2023-05-10T14:51:15;0;0;
70915;PMS5003;58557;50.982;-3.222;2023-05-10T14:53:41;1;1;
70915;PMS5003;58557;50.982;-3.222;2023-05-10T14:56:06;0;0;
70915;PMS5003;58557;50.982;-3.222;2023-05-10T14:58:32;0;0;
70915;PMS5003;58557;50.982;-3.222;2023-05-10T15:00:58;2;2;
70915;PMS5003;58557;50.982;-3.222;2023-05-10T15:03:23;1;1;
70915;PMS5003;58557;50.982;-3.222;2023-05-10T15:05:49;2;2;
70915;PMS5003;58557;50.982;-3.222;2023-05-10T15:08:14;0;0;
70915;PMS5003;58557;50.982;-3.222;2023-05-10T15:10:40;2;1;
70915;PMS5003;58557;50.982;-3.222;2023-05-10T15:13:06;1;1;
70915;PMS5003;58557;50.982;-3.222;2023-05-10T15:15:31;2;2;
70915;PMS5003;58557;50.982;-3.222;2023-05-10T15:17:57;3;3;
70915;PMS5003;58557;50.982;-3.222;2023-05-10T15:20:23;3;2;
70915;PMS5003;58557;50.982;-3.222;2023-05-10T15:22:48;1;1;
70915;PMS5003;58557;50.982;-3.222;2023-05-10T15:25:14;2;2;
70915;PMS5003;58557;50.982;-3.222;2023-05-10T15:27:41;2;2;
70915;PMS5003;58557;50.982;-3.222;2023-05-10T15:30:06;2;2;
70915;PMS5003;58557;50.982;-3.222;2023-05-10T15:32:31;0;0;
70915;PMS5003;58557;50.982;-3.222;2023-05-10T15:34:56;1;1;
70915;PMS5003;58557;50.982;-3.222;2023-05-10T15:37:22;1;1;
70915;PMS5003;58557;50.982;-3.222;2023-05-10T15:39:47;1;1;
70915;PMS5003;58557;50.982;-3.222;2023-05-10T15:42:13;3;2;
70915;PMS5003;58557;50.982;-3.222;2023-05-10T15:44:39;1;1;
70915;PMS5003;58557;50.982;-3.222;2023-05-10T15:47:05;0;0;
70915;PMS5003;58557;50.982;-3.222;2023-05-10T15:49:30;1;1;
70915;PMS5003;58557;50.982;-3.222;2023-05-10T15:51:56;2;2;
70915;PMS5003;58557;50.982;-3.222;2023-05-10T15:54:21;2;2;
70915;PMS5003;58557;50.982;-3.222;2023-05-10T15:56:48;3;1;
70915;PMS5003;58557;50.982;-3.222;2023-05-10T15:59:13;4;3;
70915;PMS5003;58557;50.982;-3.222;2023-05-10T16:01:38;2;2;
70915;PMS5003;58557;50.982;-3.222;2023-05-10T16:04:04;2;2;
70915;PMS5003;58557;50.982;-3.222;2023-05-10T16:06:30;5;2;
70915;PMS5003;58557;50.982;-3.222;2023-05-10T16:08:55;5;3;
70915;PMS5003;58557;50.982;-3.222;2023-05-10T16:11:21;2;2;
70915;PMS5003;58557;50.982;-3.222;2023-05-10T16:13:47;6;4;
70915;PMS5003;58557;50.982;-3.222;2023-05-10T16:16:12;2;2;
70915;PMS5003;58557;50.982;-3.222;2023-05-10T16:18:38;2;2;
70915;PMS5003;58557;50.982;-3.222;2023-05-10T16:21:04;1;1;
70915;PMS5003;58557;50.982;-3.222;2023-05-10T16:23:29;2;2;
70915;PMS5003;58557;50.982;-3.222;2023-05-10T16:25:55;1;1;
70915;PMS5003;58557;50.982;-3.222;2023-05-10T16:28:21;2;1;